Terminal Aerodrome Forecast
Issued by NWS Pueblo, CO

Home | Current Version | Previous Version | Text Only | Print | Product List | Glossary On
Versions: 1 2 3 4 5 6 7 8 9 10 11 12 13 14 15 16 17 18 19
000
FTUS45 KPUB 231131
TAFCOS
TAF
KCOS 231131Z 2312/2412 35009KT P6SM SCT200
     FM231500 01012KT P6SM SCT120 SCT200
     FM232000 08012KT P6SM VCTS SCT080CB BKN140
     FM232300 02015G25KT P6SM VCTS SCT080CB BKN120
     FM240200 02010KT P6SM SCT100 BKN150
     FM240600 35008KT P6SM SCT150 SCT200=

USA.gov is the U.S. government's official web portal to all federal, state and local government web resources and services.